Terminal Aerodrome Forecast
Issued by NWS

Home | Current Version | Previous Version | Graphics & Text | Print | Product List | Glossary On
Versions: 1 2 3 4 5 6 7 8 9 10 11 12 13 14 15 16 17 18 19 20 21 22 23 24 25
000
FTUS43 KGRB 201144
TAFCWA
TAF
KCWA 201144Z 2012/2112 09010KT P6SM SCT060 OVC120
     FM201300 09014G23KT P6SM BKN022 OVC045
      TEMPO 2015/2018 5SM -SHRA
     FM201800 09012G21KT 3SM -SHRA BR SCT008 OVC015
     FM202100 08012G18KT 2SM -SHRA BR SCT004 OVC008
     FM210300 11008KT 4SM -SHRA BR OVC004=

USA.gov is the U.S. government's official web portal to all federal, state and local government web resources and services.